sensor_id;sensor_type;location;lat;lon;timestamp;P1;durP1;ratioP1;P2;durP2;ratioP2
20976;SDS011;10647;51.016;3.720;2022-09-19T00:00:48;13.97;;;2.60;;
20976;SDS011;10647;51.016;3.720;2022-09-19T00:03:17;17.40;;;2.70;;
20976;SDS011;10647;51.016;3.720;2022-09-19T00:05:45;18.43;;;2.83;;
20976;SDS011;10647;51.016;3.720;2022-09-19T00:08:16;14.30;;;2.73;;
20976;SDS011;10647;51.016;3.720;2022-09-19T00:10:45;13.40;;;2.20;;
20976;SDS011;10647;51.016;3.720;2022-09-19T00:13:16;20.17;;;2.63;;
20976;SDS011;10647;51.016;3.720;2022-09-19T00:15:54;18.20;;;2.60;;
20976;SDS011;10647;51.016;3.720;2022-09-19T00:18:27;11.87;;;2.43;;
20976;SDS011;10647;51.016;3.720;2022-09-19T00:20:57;9.97;;;2.20;;
20976;SDS011;10647;51.016;3.720;2022-09-19T00:23:26;15.53;;;2.40;;
20976;SDS011;10647;51.016;3.720;2022-09-19T00:26:12;16.43;;;2.20;;
20976;SDS011;10647;51.016;3.720;2022-09-19T00:28:45;9.53;;;2.23;;
20976;SDS011;10647;51.016;3.720;2022-09-19T00:31:33;12.70;;;2.53;;
20976;SDS011;10647;51.016;3.720;2022-09-19T00:34:02;12.50;;;2.50;;
20976;SDS011;10647;51.016;3.720;2022-09-19T00:36:44;15.63;;;2.63;;
20976;SDS011;10647;51.016;3.720;2022-09-19T00:39:16;10.73;;;2.20;;
20976;SDS011;10647;51.016;3.720;2022-09-19T00:42:04;16.13;;;2.77;;
20976;SDS011;10647;51.016;3.720;2022-09-19T00:47:10;17.53;;;2.83;;
20976;SDS011;10647;51.016;3.720;2022-09-19T00:49:43;12.93;;;2.30;;
20976;SDS011;10647;51.016;3.720;2022-09-19T00:52:27;15.33;;;2.50;;
20976;SDS011;10647;51.016;3.720;2022-09-19T00:55:04;11.97;;;2.10;;
20976;SDS011;10647;51.016;3.720;2022-09-19T00:57:52;17.20;;;2.30;;
20976;SDS011;10647;51.016;3.720;2022-09-19T01:00:15;15.30;;;2.20;;
20976;SDS011;10647;51.016;3.720;2022-09-19T01:08:20;15.67;;;2.83;;
20976;SDS011;10647;51.016;3.720;2022-09-19T01:14:21;11.30;;;2.40;;
20976;SDS011;10647;51.016;3.720;2022-09-19T01:17:52;14.40;;;2.03;;
20976;SDS011;10647;51.016;3.720;2022-09-19T01:29:40;14.03;;;2.30;;
20976;SDS011;10647;51.016;3.720;2022-09-19T01:32:33;23.17;;;2.20;;
20976;SDS011;10647;51.016;3.720;2022-09-19T01:35:06;15.17;;;2.63;;
20976;SDS011;10647;51.016;3.720;2022-09-19T01:37:50;19.73;;;2.60;;
20976;SDS011;10647;51.016;3.720;2022-09-19T01:43:14;6.83;;;2.03;;
20976;SDS011;10647;51.016;3.720;2022-09-19T01:45:45;13.97;;;2.33;;
20976;SDS011;10647;51.016;3.720;2022-09-19T01:51:23;15.73;;;2.80;;
20976;SDS011;10647;51.016;3.720;2022-09-19T01:54:06;17.37;;;2.80;;
20976;SDS011;10647;51.016;3.720;2022-09-19T02:00:03;15.27;;;2.60;;
20976;SDS011;10647;51.016;3.720;2022-09-19T02:02:56;11.60;;;2.57;;
20976;SDS011;10647;51.016;3.720;2022-09-19T02:08:47;16.93;;;2.63;;
20976;SDS011;10647;51.016;3.720;2022-09-19T02:14:22;15.77;;;2.40;;
20976;SDS011;10647;51.016;3.720;2022-09-19T02:20:05;14.50;;;2.60;;
20976;SDS011;10647;51.016;3.720;2022-09-19T02:25:03;15.43;;;2.57;;
20976;SDS011;10647;51.016;3.720;2022-09-19T02:27:40;10.10;;;2.60;;
20976;SDS011;10647;51.016;3.720;2022-09-19T02:30:29;14.07;;;2.73;;
20976;SDS011;10647;51.016;3.720;2022-09-19T02:36:21;15.27;;;2.73;;
20976;SDS011;10647;51.016;3.720;2022-09-19T02:41:43;23.97;;;4.23;;
20976;SDS011;10647;51.016;3.720;2022-09-19T02:44:35;15.53;;;2.60;;
20976;SDS011;10647;51.016;3.720;2022-09-19T02:47:34;14.10;;;2.77;;
20976;SDS011;10647;51.016;3.720;2022-09-19T02:50:23;17.93;;;2.63;;
20976;SDS011;10647;51.016;3.720;2022-09-19T02:53:19;9.07;;;2.70;;
20976;SDS011;10647;51.016;3.720;2022-09-19T02:55:54;12.83;;;2.70;;
20976;SDS011;10647;51.016;3.720;2022-09-19T02:58:32;13.27;;;2.73;;
20976;SDS011;10647;51.016;3.720;2022-09-19T03:01:10;22.60;;;2.80;;
20976;SDS011;10647;51.016;3.720;2022-09-19T03:03:58;14.87;;;3.10;;
20976;SDS011;10647;51.016;3.720;2022-09-19T03:09:27;15.63;;;2.77;;
20976;SDS011;10647;51.016;3.720;2022-09-19T03:17:38;11.13;;;2.70;;
20976;SDS011;10647;51.016;3.720;2022-09-19T03:22:41;12.33;;;2.50;;
20976;SDS011;10647;51.016;3.720;2022-09-19T03:27:45;11.17;;;2.50;;
20976;SDS011;10647;51.016;3.720;2022-09-19T03:30:15;16.90;;;2.90;;
20976;SDS011;10647;51.016;3.720;2022-09-19T03:32:48;15.40;;;2.77;;
20976;SDS011;10647;51.016;3.720;2022-09-19T03:35:22;9.03;;;2.90;;
20976;SDS011;10647;51.016;3.720;2022-09-19T03:37:50;15.80;;;2.53;;
20976;SDS011;10647;51.016;3.720;2022-09-19T03:40:21;17.63;;;2.90;;
20976;SDS011;10647;51.016;3.720;2022-09-19T03:42:51;17.07;;;2.77;;
20976;SDS011;10647;51.016;3.720;2022-09-19T03:45:18;11.07;;;2.70;;
20976;SDS011;10647;51.016;3.720;2022-09-19T03:47:47;13.33;;;2.70;;
20976;SDS011;10647;51.016;3.720;2022-09-19T03:50:14;15.47;;;2.90;;
20976;SDS011;10647;51.016;3.720;2022-09-19T03:52:50;14.10;;;2.80;;
20976;SDS011;10647;51.016;3.720;2022-09-19T03:55:17;12.60;;;2.83;;
20976;SDS011;10647;51.016;3.720;2022-09-19T03:57:48;9.70;;;2.60;;
20976;SDS011;10647;51.016;3.720;2022-09-19T04:00:19;18.97;;;2.83;;
20976;SDS011;10647;51.016;3.720;2022-09-19T04:02:53;6.43;;;2.57;;
20976;SDS011;10647;51.016;3.720;2022-09-19T04:05:28;18.50;;;2.60;;
20976;SDS011;10647;51.016;3.720;2022-09-19T04:07:57;14.37;;;2.90;;
20976;SDS011;10647;51.016;3.720;2022-09-19T04:10:33;11.30;;;3.20;;
20976;SDS011;10647;51.016;3.720;2022-09-19T04:13:05;20.67;;;2.80;;
20976;SDS011;10647;51.016;3.720;2022-09-19T04:15:35;16.73;;;3.00;;
20976;SDS011;10647;51.016;3.720;2022-09-19T04:18:04;20.13;;;3.40;;
20976;SDS011;10647;51.016;3.720;2022-09-19T04:20:37;16.00;;;2.93;;
20976;SDS011;10647;51.016;3.720;2022-09-19T04:23:05;13.07;;;2.90;;
20976;SDS011;10647;51.016;3.720;2022-09-19T04:25:34;11.23;;;2.70;;
20976;SDS011;10647;51.016;3.720;2022-09-19T04:28:02;11.07;;;2.63;;
20976;SDS011;10647;51.016;3.720;2022-09-19T04:30:32;13.53;;;3.00;;
20976;SDS011;10647;51.016;3.720;2022-09-19T04:33:04;12.60;;;2.77;;
20976;SDS011;10647;51.016;3.720;2022-09-19T04:35:39;13.10;;;3.00;;
20976;SDS011;10647;51.016;3.720;2022-09-19T04:38:15;12.30;;;2.80;;
20976;SDS011;10647;51.016;3.720;2022-09-19T04:40:45;11.50;;;2.73;;
20976;SDS011;10647;51.016;3.720;2022-09-19T04:43:15;9.50;;;2.73;;
20976;SDS011;10647;51.016;3.720;2022-09-19T04:45:45;17.80;;;2.97;;
20976;SDS011;10647;51.016;3.720;2022-09-19T04:48:14;15.93;;;3.67;;
20976;SDS011;10647;51.016;3.720;2022-09-19T04:50:45;14.43;;;3.03;;
20976;SDS011;10647;51.016;3.720;2022-09-19T04:53:17;12.93;;;3.30;;
20976;SDS011;10647;51.016;3.720;2022-09-19T04:55:49;11.27;;;3.03;;
20976;SDS011;10647;51.016;3.720;2022-09-19T04:58:38;15.47;;;3.03;;
20976;SDS011;10647;51.016;3.720;2022-09-19T05:03:52;13.93;;;3.17;;
20976;SDS011;10647;51.016;3.720;2022-09-19T05:06:22;10.73;;;3.10;;
20976;SDS011;10647;51.016;3.720;2022-09-19T05:09:10;13.07;;;3.20;;
20976;SDS011;10647;51.016;3.720;2022-09-19T05:11:39;15.27;;;3.07;;
20976;SDS011;10647;51.016;3.720;2022-09-19T05:14:08;12.53;;;3.30;;
20976;SDS011;10647;51.016;3.720;2022-09-19T05:19:16;15.33;;;3.20;;
20976;SDS011;10647;51.016;3.720;2022-09-19T05:21:51;19.43;;;3.47;;
20976;SDS011;10647;51.016;3.720;2022-09-19T05:24:19;16.10;;;3.47;;
20976;SDS011;10647;51.016;3.720;2022-09-19T05:26:46;16.03;;;3.43;;
20976;SDS011;10647;51.016;3.720;2022-09-19T05:29:20;20.43;;;3.80;;
20976;SDS011;10647;51.016;3.720;2022-09-19T05:31:50;20.67;;;4.23;;
20976;SDS011;10647;51.016;3.720;2022-09-19T05:34:19;19.47;;;4.00;;
20976;SDS011;10647;51.016;3.720;2022-09-19T05:36:47;19.57;;;4.27;;
20976;SDS011;10647;51.016;3.720;2022-09-19T05:39:19;12.93;;;4.07;;
20976;SDS011;10647;51.016;3.720;2022-09-19T05:42:00;18.23;;;4.00;;
20976;SDS011;10647;51.016;3.720;2022-09-19T05:44:47;18.03;;;5.33;;
20976;SDS011;10647;51.016;3.720;2022-09-19T05:47:14;15.43;;;4.90;;
20976;SDS011;10647;51.016;3.720;2022-09-19T05:49:42;19.07;;;4.83;;
20976;SDS011;10647;51.016;3.720;2022-09-19T05:52:09;17.77;;;5.10;;
20976;SDS011;10647;51.016;3.720;2022-09-19T05:54:54;14.43;;;4.93;;
20976;SDS011;10647;51.016;3.720;2022-09-19T06:00:10;13.27;;;4.63;;
20976;SDS011;10647;51.016;3.720;2022-09-19T06:05:38;20.17;;;5.37;;
20976;SDS011;10647;51.016;3.720;2022-09-19T06:08:07;24.60;;;6.10;;
20976;SDS011;10647;51.016;3.720;2022-09-19T06:10:40;13.47;;;4.83;;
20976;SDS011;10647;51.016;3.720;2022-09-19T06:13:14;18.63;;;4.93;;
20976;SDS011;10647;51.016;3.720;2022-09-19T06:15:44;20.33;;;5.80;;
20976;SDS011;10647;51.016;3.720;2022-09-19T06:18:12;20.13;;;5.87;;
20976;SDS011;10647;51.016;3.720;2022-09-19T06:20:40;17.57;;;5.77;;
20976;SDS011;10647;51.016;3.720;2022-09-19T06:23:09;15.50;;;5.60;;
20976;SDS011;10647;51.016;3.720;2022-09-19T06:25:38;20.83;;;6.00;;
20976;SDS011;10647;51.016;3.720;2022-09-19T06:28:07;19.50;;;5.67;;
20976;SDS011;10647;51.016;3.720;2022-09-19T06:30:36;18.23;;;6.70;;
20976;SDS011;10647;51.016;3.720;2022-09-19T06:33:07;20.50;;;6.07;;
20976;SDS011;10647;51.016;3.720;2022-09-19T06:35:35;20.07;;;6.57;;
20976;SDS011;10647;51.016;3.720;2022-09-19T06:38:05;19.20;;;6.10;;
20976;SDS011;10647;51.016;3.720;2022-09-19T06:40:33;22.63;;;6.50;;
20976;SDS011;10647;51.016;3.720;2022-09-19T06:43:03;15.70;;;5.03;;
20976;SDS011;10647;51.016;3.720;2022-09-19T06:45:39;16.30;;;5.40;;
20976;SDS011;10647;51.016;3.720;2022-09-19T06:48:16;21.07;;;4.87;;
20976;SDS011;10647;51.016;3.720;2022-09-19T06:50:53;17.40;;;5.33;;
20976;SDS011;10647;51.016;3.720;2022-09-19T06:53:27;16.53;;;5.10;;
20976;SDS011;10647;51.016;3.720;2022-09-19T06:56:01;14.93;;;5.83;;
20976;SDS011;10647;51.016;3.720;2022-09-19T06:58:35;17.20;;;5.40;;
20976;SDS011;10647;51.016;3.720;2022-09-19T07:01:03;22.70;;;5.03;;
20976;SDS011;10647;51.016;3.720;2022-09-19T07:03:33;16.07;;;4.73;;
20976;SDS011;10647;51.016;3.720;2022-09-19T07:06:07;15.93;;;5.57;;
20976;SDS011;10647;51.016;3.720;2022-09-19T07:08:36;14.90;;;4.60;;
20976;SDS011;10647;51.016;3.720;2022-09-19T07:11:14;14.73;;;4.27;;
20976;SDS011;10647;51.016;3.720;2022-09-19T07:13:51;15.17;;;4.37;;
20976;SDS011;10647;51.016;3.720;2022-09-19T07:16:19;14.30;;;4.13;;
20976;SDS011;10647;51.016;3.720;2022-09-19T07:21:23;16.80;;;4.00;;
20976;SDS011;10647;51.016;3.720;2022-09-19T07:23:53;11.57;;;3.87;;
20976;SDS011;10647;51.016;3.720;2022-09-19T07:26:23;11.00;;;3.63;;
20976;SDS011;10647;51.016;3.720;2022-09-19T07:28:51;30.30;;;4.70;;
20976;SDS011;10647;51.016;3.720;2022-09-19T07:31:18;13.30;;;3.73;;
20976;SDS011;10647;51.016;3.720;2022-09-19T07:33:47;18.43;;;4.10;;
20976;SDS011;10647;51.016;3.720;2022-09-19T07:36:16;12.73;;;3.73;;
20976;SDS011;10647;51.016;3.720;2022-09-19T07:38:48;19.90;;;3.90;;
20976;SDS011;10647;51.016;3.720;2022-09-19T07:41:16;14.57;;;4.00;;
20976;SDS011;10647;51.016;3.720;2022-09-19T07:43:47;12.93;;;3.73;;
20976;SDS011;10647;51.016;3.720;2022-09-19T07:46:20;17.10;;;3.53;;
20976;SDS011;10647;51.016;3.720;2022-09-19T07:48:49;14.47;;;3.30;;
20976;SDS011;10647;51.016;3.720;2022-09-19T07:51:19;12.10;;;3.47;;
20976;SDS011;10647;51.016;3.720;2022-09-19T07:53:47;13.97;;;3.70;;
20976;SDS011;10647;51.016;3.720;2022-09-19T07:59:19;13.47;;;3.40;;
20976;SDS011;10647;51.016;3.720;2022-09-19T08:01:49;18.23;;;3.87;;
20976;SDS011;10647;51.016;3.720;2022-09-19T08:04:17;17.80;;;3.40;;
20976;SDS011;10647;51.016;3.720;2022-09-19T08:09:16;13.07;;;3.90;;
20976;SDS011;10647;51.016;3.720;2022-09-19T08:14:32;17.20;;;3.83;;
20976;SDS011;10647;51.016;3.720;2022-09-19T08:17:00;13.90;;;4.30;;
20976;SDS011;10647;51.016;3.720;2022-09-19T08:19:29;17.43;;;4.77;;
20976;SDS011;10647;51.016;3.720;2022-09-19T08:22:00;17.37;;;5.23;;
20976;SDS011;10647;51.016;3.720;2022-09-19T08:24:27;12.43;;;4.17;;
20976;SDS011;10647;51.016;3.720;2022-09-19T08:26:55;15.30;;;4.73;;
20976;SDS011;10647;51.016;3.720;2022-09-19T08:31:54;13.30;;;3.77;;
20976;SDS011;10647;51.016;3.720;2022-09-19T08:34:24;15.83;;;4.10;;
20976;SDS011;10647;51.016;3.720;2022-09-19T08:37:00;21.63;;;4.40;;
20976;SDS011;10647;51.016;3.720;2022-09-19T08:39:28;15.50;;;4.57;;
20976;SDS011;10647;51.016;3.720;2022-09-19T08:42:03;10.60;;;4.13;;
20976;SDS011;10647;51.016;3.720;2022-09-19T08:44:54;12.27;;;4.20;;
20976;SDS011;10647;51.016;3.720;2022-09-19T08:47:43;11.97;;;3.67;;
20976;SDS011;10647;51.016;3.720;2022-09-19T08:50:25;16.73;;;3.40;;
20976;SDS011;10647;51.016;3.720;2022-09-19T08:53:02;10.30;;;3.67;;
20976;SDS011;10647;51.016;3.720;2022-09-19T08:58:06;13.23;;;3.67;;
20976;SDS011;10647;51.016;3.720;2022-09-19T09:00:41;10.47;;;3.80;;
20976;SDS011;10647;51.016;3.720;2022-09-19T09:03:42;9.23;;;2.80;;
20976;SDS011;10647;51.016;3.720;2022-09-19T09:06:26;12.73;;;3.00;;
20976;SDS011;10647;51.016;3.720;2022-09-19T09:11:50;13.20;;;2.57;;
20976;SDS011;10647;51.016;3.720;2022-09-19T09:21:28;8.78;;;2.27;;
20976;SDS011;10647;51.016;3.720;2022-09-19T09:24:19;12.20;;;2.90;;
20976;SDS011;10647;51.016;3.720;2022-09-19T09:26:52;11.65;;;2.52;;
20976;SDS011;10647;51.016;3.720;2022-09-19T09:29:34;18.48;;;2.80;;
20976;SDS011;10647;51.016;3.720;2022-09-19T09:34:49;106.70;;;10.27;;
20976;SDS011;10647;51.016;3.720;2022-09-19T09:37:24;11.60;;;3.07;;
20976;SDS011;10647;51.016;3.720;2022-09-19T09:42:56;15.50;;;2.83;;
20976;SDS011;10647;51.016;3.720;2022-09-19T09:53:57;10.67;;;2.13;;
20976;SDS011;10647;51.016;3.720;2022-09-19T09:56:34;11.10;;;1.93;;
20976;SDS011;10647;51.016;3.720;2022-09-19T10:08:02;11.37;;;2.70;;
20976;SDS011;10647;51.016;3.720;2022-09-19T10:10:30;13.03;;;2.73;;
20976;SDS011;10647;51.016;3.720;2022-09-19T10:13:01;13.27;;;3.20;;
20976;SDS011;10647;51.016;3.720;2022-09-19T10:15:42;17.03;;;3.23;;
20976;SDS011;10647;51.016;3.720;2022-09-19T10:18:14;15.47;;;2.97;;
20976;SDS011;10647;51.016;3.720;2022-09-19T10:20:48;15.37;;;3.03;;
20976;SDS011;10647;51.016;3.720;2022-09-19T10:23:20;10.70;;;2.83;;
20976;SDS011;10647;51.016;3.720;2022-09-19T10:26:02;12.60;;;2.40;;
20976;SDS011;10647;51.016;3.720;2022-09-19T10:28:38;7.28;;;2.08;;
20976;SDS011;10647;51.016;3.720;2022-09-19T10:31:19;11.28;;;1.98;;
20976;SDS011;10647;51.016;3.720;2022-09-19T10:33:57;8.75;;;2.12;;
20976;SDS011;10647;51.016;3.720;2022-09-19T10:36:26;12.40;;;2.15;;
20976;SDS011;10647;51.016;3.720;2022-09-19T10:38:56;12.33;;;2.02;;
20976;SDS011;10647;51.016;3.720;2022-09-19T10:41:28;7.53;;;2.12;;
20976;SDS011;10647;51.016;3.720;2022-09-19T10:44:03;15.63;;;2.80;;
20976;SDS011;10647;51.016;3.720;2022-09-19T10:46:35;9.35;;;1.92;;
20976;SDS011;10647;51.016;3.720;2022-09-19T10:49:06;42.70;;;4.00;;
20976;SDS011;10647;51.016;3.720;2022-09-19T10:51:41;12.25;;;1.92;;
20976;SDS011;10647;51.016;3.720;2022-09-19T10:54:11;17.25;;;2.25;;
20976;SDS011;10647;51.016;3.720;2022-09-19T10:56:42;11.00;;;2.50;;
20976;SDS011;10647;51.016;3.720;2022-09-19T11:05:22;10.03;;;1.45;;
20976;SDS011;10647;51.016;3.720;2022-09-19T11:07:24;7.08;;;1.10;;
20976;SDS011;10647;51.016;3.720;2022-09-19T11:09:54;9.30;;;1.15;;
20976;SDS011;10647;51.016;3.720;2022-09-19T11:12:23;12.25;;;1.10;;
20976;SDS011;10647;51.016;3.720;2022-09-19T11:14:51;9.35;;;1.40;;
20976;SDS011;10647;51.016;3.720;2022-09-19T11:23:08;2.10;;;0.60;;
20976;SDS011;10647;51.016;3.720;2022-09-19T11:34:04;7.05;;;0.82;;
20976;SDS011;10647;51.016;3.720;2022-09-19T11:39:47;7.05;;;1.37;;
20976;SDS011;10647;51.016;3.720;2022-09-19T11:45:11;9.40;;;1.20;;
20976;SDS011;10647;51.016;3.720;2022-09-19T11:50:19;6.58;;;1.00;;
20976;SDS011;10647;51.016;3.720;2022-09-19T11:58:32;8.45;;;1.07;;
20976;SDS011;10647;51.016;3.720;2022-09-19T12:09:47;9.03;;;0.88;;
20976;SDS011;10647;51.016;3.720;2022-09-19T12:12:13;6.65;;;1.10;;
20976;SDS011;10647;51.016;3.720;2022-09-19T12:14:55;7.08;;;1.52;;
20976;SDS011;10647;51.016;3.720;2022-09-19T12:17:29;39.75;;;3.33;;
20976;SDS011;10647;51.016;3.720;2022-09-19T12:22:34;13.32;;;1.62;;
20976;SDS011;10647;51.016;3.720;2022-09-19T12:25:05;6.72;;;0.80;;
20976;SDS011;10647;51.016;3.720;2022-09-19T12:27:39;7.10;;;0.85;;
20976;SDS011;10647;51.016;3.720;2022-09-19T12:38:25;7.62;;;1.30;;
20976;SDS011;10647;51.016;3.720;2022-09-19T12:41:13;5.78;;;0.98;;
20976;SDS011;10647;51.016;3.720;2022-09-19T12:46:57;21.73;;;1.98;;
20976;SDS011;10647;51.016;3.720;2022-09-19T12:52:23;7.87;;;0.85;;
20976;SDS011;10647;51.016;3.720;2022-09-19T12:57:58;8.95;;;0.90;;
20976;SDS011;10647;51.016;3.720;2022-09-19T13:00:32;5.15;;;0.85;;
20976;SDS011;10647;51.016;3.720;2022-09-19T13:06:08;9.13;;;1.00;;
20976;SDS011;10647;51.016;3.720;2022-09-19T13:08:52;7.00;;;1.20;;
20976;SDS011;10647;51.016;3.720;2022-09-19T13:14:23;5.97;;;0.90;;
20976;SDS011;10647;51.016;3.720;2022-09-19T13:16:56;4.90;;;0.95;;
20976;SDS011;10647;51.016;3.720;2022-09-19T13:25:32;6.15;;;0.90;;
20976;SDS011;10647;51.016;3.720;2022-09-19T13:33:37;5.40;;;1.02;;
20976;SDS011;10647;51.016;3.720;2022-09-19T13:36:14;5.42;;;0.90;;
20976;SDS011;10647;51.016;3.720;2022-09-19T13:38:47;6.25;;;1.27;;
20976;SDS011;10647;51.016;3.720;2022-09-19T13:49:49;92.65;;;8.60;;
20976;SDS011;10647;51.016;3.720;2022-09-19T13:52:29;37.83;;;2.05;;
20976;SDS011;10647;51.016;3.720;2022-09-19T13:55:28;9.10;;;1.20;;
20976;SDS011;10647;51.016;3.720;2022-09-19T14:01:38;6.60;;;0.98;;
20976;SDS011;10647;51.016;3.720;2022-09-19T14:15:31;6.25;;;0.70;;
20976;SDS011;10647;51.016;3.720;2022-09-19T14:24:05;8.23;;;1.10;;
20976;SDS011;10647;51.016;3.720;2022-09-19T14:40:40;6.20;;;0.72;;
20976;SDS011;10647;51.016;3.720;2022-09-19T14:46:17;7.72;;;1.05;;
20976;SDS011;10647;51.016;3.720;2022-09-19T14:59:33;5.08;;;0.72;;
20976;SDS011;10647;51.016;3.720;2022-09-19T15:02:22;6.85;;;0.80;;
20976;SDS011;10647;51.016;3.720;2022-09-19T15:05:33;5.92;;;0.80;;
20976;SDS011;10647;51.016;3.720;2022-09-19T15:07:50;3.60;;;0.75;;
20976;SDS011;10647;51.016;3.720;2022-09-19T15:10:28;5.67;;;0.62;;
20976;SDS011;10647;51.016;3.720;2022-09-19T15:13:19;4.90;;;0.78;;
20976;SDS011;10647;51.016;3.720;2022-09-19T15:15:53;5.08;;;0.68;;
20976;SDS011;10647;51.016;3.720;2022-09-19T15:18:19;7.95;;;1.00;;
20976;SDS011;10647;51.016;3.720;2022-09-19T15:21:01;3.27;;;0.80;;
20976;SDS011;10647;51.016;3.720;2022-09-19T15:23:38;8.65;;;0.90;;
20976;SDS011;10647;51.016;3.720;2022-09-19T15:26:15;5.22;;;1.17;;
20976;SDS011;10647;51.016;3.720;2022-09-19T15:29:04;3.90;;;0.80;;
20976;SDS011;10647;51.016;3.720;2022-09-19T15:31:34;4.20;;;0.60;;
20976;SDS011;10647;51.016;3.720;2022-09-19T15:36:33;3.47;;;1.22;;
20976;SDS011;10647;51.016;3.720;2022-09-19T15:39:03;4.15;;;0.62;;
20976;SDS011;10647;51.016;3.720;2022-09-19T15:41:32;5.10;;;0.70;;
20976;SDS011;10647;51.016;3.720;2022-09-19T15:44:01;3.90;;;0.85;;
20976;SDS011;10647;51.016;3.720;2022-09-19T15:49:27;4.90;;;1.22;;
20976;SDS011;10647;51.016;3.720;2022-09-19T15:52:15;6.20;;;0.70;;
20976;SDS011;10647;51.016;3.720;2022-09-19T15:54:45;4.95;;;1.10;;
20976;SDS011;10647;51.016;3.720;2022-09-19T15:57:28;3.00;;;0.60;;
20976;SDS011;10647;51.016;3.720;2022-09-19T15:59:58;3.92;;;0.60;;
20976;SDS011;10647;51.016;3.720;2022-09-19T16:02:35;4.28;;;0.70;;
20976;SDS011;10647;51.016;3.720;2022-09-19T16:05:18;3.37;;;0.53;;
20976;SDS011;10647;51.016;3.720;2022-09-19T16:07:52;6.85;;;0.95;;
20976;SDS011;10647;51.016;3.720;2022-09-19T16:10:41;3.80;;;0.70;;
20976;SDS011;10647;51.016;3.720;2022-09-19T16:16:25;6.25;;;0.80;;
20976;SDS011;10647;51.016;3.720;2022-09-19T16:18:53;3.30;;;0.50;;
20976;SDS011;10647;51.016;3.720;2022-09-19T16:21:55;3.52;;;0.57;;
20976;SDS011;10647;51.016;3.720;2022-09-19T16:24:16;6.35;;;0.68;;
20976;SDS011;10647;51.016;3.720;2022-09-19T16:26:58;7.95;;;0.88;;
20976;SDS011;10647;51.016;3.720;2022-09-19T16:29:39;4.55;;;0.93;;
20976;SDS011;10647;51.016;3.720;2022-09-19T16:32:11;3.02;;;0.53;;
20976;SDS011;10647;51.016;3.720;2022-09-19T16:34:44;4.65;;;0.68;;
20976;SDS011;10647;51.016;3.720;2022-09-19T16:37:33;5.40;;;0.82;;
20976;SDS011;10647;51.016;3.720;2022-09-19T16:40:19;6.35;;;0.80;;
20976;SDS011;10647;51.016;3.720;2022-09-19T16:42:35;5.72;;;0.70;;
20976;SDS011;10647;51.016;3.720;2022-09-19T16:45:14;5.55;;;0.98;;
20976;SDS011;10647;51.016;3.720;2022-09-19T16:47:48;3.72;;;0.70;;
20976;SDS011;10647;51.016;3.720;2022-09-19T16:50:19;5.30;;;0.60;;
20976;SDS011;10647;51.016;3.720;2022-09-19T16:52:58;6.10;;;0.70;;
20976;SDS011;10647;51.016;3.720;2022-09-19T16:55:41;3.75;;;0.60;;
20976;SDS011;10647;51.016;3.720;2022-09-19T16:58:22;3.77;;;0.70;;
20976;SDS011;10647;51.016;3.720;2022-09-19T17:00:56;3.70;;;0.60;;
20976;SDS011;10647;51.016;3.720;2022-09-19T17:03:23;5.87;;;1.35;;
20976;SDS011;10647;51.016;3.720;2022-09-19T17:05:54;2.72;;;0.50;;
20976;SDS011;10647;51.016;3.720;2022-09-19T17:08:22;9.03;;;0.88;;
20976;SDS011;10647;51.016;3.720;2022-09-19T17:10:50;6.70;;;0.80;;
20976;SDS011;10647;51.016;3.720;2022-09-19T17:13:18;3.95;;;0.78;;
20976;SDS011;10647;51.016;3.720;2022-09-19T17:15:59;9.23;;;1.00;;
20976;SDS011;10647;51.016;3.720;2022-09-19T17:21:11;3.58;;;0.65;;
20976;SDS011;10647;51.016;3.720;2022-09-19T17:23:43;4.65;;;0.70;;
20976;SDS011;10647;51.016;3.720;2022-09-19T17:26:13;4.72;;;0.72;;
20976;SDS011;10647;51.016;3.720;2022-09-19T17:28:42;4.03;;;0.60;;
20976;SDS011;10647;51.016;3.720;2022-09-19T17:31:10;3.00;;;0.80;;
20976;SDS011;10647;51.016;3.720;2022-09-19T17:33:45;3.45;;;0.55;;
20976;SDS011;10647;51.016;3.720;2022-09-19T17:36:19;9.23;;;0.78;;
20976;SDS011;10647;51.016;3.720;2022-09-19T17:38:53;7.97;;;0.80;;
20976;SDS011;10647;51.016;3.720;2022-09-19T17:41:25;7.67;;;0.70;;
20976;SDS011;10647;51.016;3.720;2022-09-19T17:43:56;4.30;;;0.63;;
20976;SDS011;10647;51.016;3.720;2022-09-19T17:46:24;8.55;;;0.80;;
20976;SDS011;10647;51.016;3.720;2022-09-19T17:48:57;7.57;;;0.83;;
20976;SDS011;10647;51.016;3.720;2022-09-19T17:51:25;6.47;;;0.80;;
20976;SDS011;10647;51.016;3.720;2022-09-19T17:53:53;10.07;;;1.10;;
20976;SDS011;10647;51.016;3.720;2022-09-19T17:56:30;6.73;;;0.90;;
20976;SDS011;10647;51.016;3.720;2022-09-19T17:58:58;4.83;;;0.90;;
20976;SDS011;10647;51.016;3.720;2022-09-19T18:01:29;3.93;;;0.90;;
20976;SDS011;10647;51.016;3.720;2022-09-19T18:06:59;4.00;;;0.60;;
20976;SDS011;10647;51.016;3.720;2022-09-19T18:09:27;7.37;;;0.97;;
20976;SDS011;10647;51.016;3.720;2022-09-19T18:11:58;5.73;;;0.80;;
20976;SDS011;10647;51.016;3.720;2022-09-19T18:14:37;4.77;;;0.87;;
20976;SDS011;10647;51.016;3.720;2022-09-19T18:19:34;4.50;;;0.83;;
20976;SDS011;10647;51.016;3.720;2022-09-19T18:24:32;5.93;;;1.30;;
20976;SDS011;10647;51.016;3.720;2022-09-19T18:27:01;8.83;;;1.20;;
20976;SDS011;10647;51.016;3.720;2022-09-19T18:29:35;7.67;;;0.90;;
20976;SDS011;10647;51.016;3.720;2022-09-19T18:34:33;4.60;;;0.90;;
20976;SDS011;10647;51.016;3.720;2022-09-19T18:37:06;3.90;;;0.57;;
20976;SDS011;10647;51.016;3.720;2022-09-19T18:39:34;4.93;;;0.73;;
20976;SDS011;10647;51.016;3.720;2022-09-19T18:42:03;1.47;;;0.60;;
20976;SDS011;10647;51.016;3.720;2022-09-19T18:44:33;5.10;;;0.80;;
20976;SDS011;10647;51.016;3.720;2022-09-19T18:47:03;4.43;;;0.60;;
20976;SDS011;10647;51.016;3.720;2022-09-19T18:49:32;7.80;;;1.10;;
20976;SDS011;10647;51.016;3.720;2022-09-19T18:54:30;4.27;;;0.70;;
20976;SDS011;10647;51.016;3.720;2022-09-19T18:56:59;4.30;;;0.70;;
20976;SDS011;10647;51.016;3.720;2022-09-19T18:59:26;3.43;;;0.80;;
20976;SDS011;10647;51.016;3.720;2022-09-19T19:02:00;4.33;;;0.77;;
20976;SDS011;10647;51.016;3.720;2022-09-19T19:07:05;5.43;;;0.90;;
20976;SDS011;10647;51.016;3.720;2022-09-19T19:09:40;10.00;;;1.07;;
20976;SDS011;10647;51.016;3.720;2022-09-19T19:12:21;7.80;;;1.00;;
20976;SDS011;10647;51.016;3.720;2022-09-19T19:14:52;1.73;;;0.60;;
20976;SDS011;10647;51.016;3.720;2022-09-19T19:17:24;7.17;;;1.20;;
20976;SDS011;10647;51.016;3.720;2022-09-19T19:19:54;11.00;;;1.20;;
20976;SDS011;10647;51.016;3.720;2022-09-19T19:22:23;6.30;;;0.90;;
20976;SDS011;10647;51.016;3.720;2022-09-19T19:24:56;7.93;;;1.03;;
20976;SDS011;10647;51.016;3.720;2022-09-19T19:27:31;7.93;;;1.10;;
20976;SDS011;10647;51.016;3.720;2022-09-19T19:29:59;4.20;;;0.90;;
20976;SDS011;10647;51.016;3.720;2022-09-19T19:32:28;7.97;;;1.33;;
20976;SDS011;10647;51.016;3.720;2022-09-19T19:34:55;7.13;;;1.20;;
20976;SDS011;10647;51.016;3.720;2022-09-19T19:37:23;4.87;;;1.30;;
20976;SDS011;10647;51.016;3.720;2022-09-19T19:39:50;7.83;;;1.80;;
20976;SDS011;10647;51.016;3.720;2022-09-19T19:42:19;5.97;;;1.33;;
20976;SDS011;10647;51.016;3.720;2022-09-19T19:44:50;6.37;;;1.23;;
20976;SDS011;10647;51.016;3.720;2022-09-19T19:47:18;6.97;;;1.57;;
20976;SDS011;10647;51.016;3.720;2022-09-19T19:49:46;8.53;;;1.40;;
20976;SDS011;10647;51.016;3.720;2022-09-19T19:52:18;8.40;;;1.20;;
20976;SDS011;10647;51.016;3.720;2022-09-19T19:54:47;10.53;;;1.53;;
20976;SDS011;10647;51.016;3.720;2022-09-19T19:57:15;4.93;;;1.40;;
20976;SDS011;10647;51.016;3.720;2022-09-19T19:59:50;9.00;;;1.80;;
20976;SDS011;10647;51.016;3.720;2022-09-19T20:02:23;5.87;;;1.80;;
20976;SDS011;10647;51.016;3.720;2022-09-19T20:04:51;8.10;;;1.87;;